Time;durP1;ratioP1;P1;durP2;ratioP2;P2;SDS_P1;SDS_P2;PMS_P1;PMS_P2;Temp;Humidity;BMP_temperature;BMP_pressure;BME280_temperature;BME280_humidity;BME280_pressure;Samples;Min_cycle;Max_cycle;Signal;HPM_P1;HPM_P2
2023/04/16 00:01:01;;;;;;;;;;;;;;;20.42;71.48;101978.38;5055895;28;19925;-54
2023/04/16 00:03:26;;;;;;;;;;;;;;;20.11;73.49;101982.22;5056328;28;19917;-55
2023/04/16 00:05:54;;;;;;;;;;;;;;;20.37;72.59;101980.97;5051650;28;19917;-52
2023/04/16 00:08:20;;;;;;;;;;;;;;;20.19;73.13;101988.13;5055862;28;19917;-50
2023/04/16 00:10:46;;;;;;;;;;;;;;;20.16;73.59;101975.03;5055717;28;19932;-52
2023/04/16 00:13:11;;;;;;;;;;;;;;;20.97;71.24;101987.28;5055988;28;19917;-52
2023/04/16 00:15:37;;;;;;;;;;;;;;;20.19;73.50;101988.13;5055933;28;19914;-54
2023/04/16 00:18:02;;;;;;;;;;;;;;;20.22;73.77;101983.31;5053114;28;19917;-56
2023/04/16 00:20:27;;;;;;;;;;;;;;;20.06;75.06;101985.63;5055622;28;19917;-56
2023/04/16 00:22:52;;;;;;;;;;;;;;;20.09;76.00;101985.19;5055153;28;19944;-55
2023/04/16 00:25:18;;;;;;;;;;;;;;;20.05;75.67;101986.66;5055548;28;19948;-52
2023/04/16 00:27:43;;;;;;;;;;;;;;;20.30;74.32;101985.69;5055543;28;19917;-56
2023/04/16 00:30:09;;;;;;;;;;;;;;;20.12;75.96;101992.84;5053741;28;19917;-56
2023/04/16 00:32:35;;;;;;;;;;;;;;;20.19;75.47;101993.56;5037373;28;19921;-54
2023/04/16 00:35:01;;;;;;;;;;;;;;;20.31;74.73;101984.63;5037528;28;20010;-53
2023/04/16 00:37:26;;;;;;;;;;;;;;;20.54;72.49;101988.44;5055227;28;19928;-56
2023/04/16 00:39:51;;;;;;;;;;;;;;;20.69;72.88;101991.50;5055507;28;19916;-56
2023/04/16 00:42:16;;;;;;;;;;;;;;;19.55;78.57;101982.31;5037980;28;19917;-56
2023/04/16 00:44:42;;;;;;;;;;;;;;;20.22;76.31;101977.88;5038144;28;19945;-53
2023/04/16 00:47:07;;;;;;;;;;;;;;;20.30;76.47;101985.69;5038102;28;19929;-50
2023/04/16 00:49:33;;;;;;;;;;;;;;;20.10;77.62;101986.00;5055221;28;19953;-53
2023/04/16 00:52:01;;;;;;;;;;;;;;;20.17;74.99;101973.97;5045583;28;19932;-56
2023/04/16 00:54:27;;;;;;;;;;;;;;;20.14;75.46;101971.72;5073791;28;19972;-55
2023/04/16 00:56:52;;;;;;;;;;;;;;;19.95;78.38;101983.69;5073730;28;19971;-57
2023/04/16 00:59:17;;;;;;;;;;;;;;;19.84;77.34;101977.13;5075039;28;19921;-53
2023/04/16 01:01:43;;;;;;;;;;;;;;;20.33;77.10;101980.59;5075296;28;19924;-55
2023/04/16 01:04:08;;;;;;;;;;;;;;;19.90;79.06;101982.47;5074953;28;19917;-54
2023/04/16 01:06:34;;;;;;;;;;;;;;;19.94;79.95;101972.00;5075279;28;19908;-55
2023/04/16 01:08:59;;;;;;;;;;;;;;;20.40;77.58;101974.22;5074107;28;20390;-55
2023/04/16 01:11:25;;;;;;;;;;;;;;;20.55;76.41;101974.63;5074332;28;20012;-57
2023/04/16 01:13:50;;;;;;;;;;;;;;;20.12;78.36;101968.41;5055483;28;19925;-55
2023/04/16 01:16:16;;;;;;;;;;;;;;;19.90;77.65;101973.50;5075089;28;20089;-56
2023/04/16 01:18:41;;;;;;;;;;;;;;;19.73;80.65;101971.44;5073096;28;19952;-57
2023/04/16 01:21:07;;;;;;;;;;;;;;;19.60;82.79;101967.00;5073466;28;19924;-56
2023/04/16 01:23:33;;;;;;;;;;;;;;;19.78;80.91;101979.72;5071740;28;19917;-55
2023/04/16 01:25:59;;;;;;;;;;;;;;;19.33;84.65;101983.59;5074078;28;19921;-55
2023/04/16 01:28:24;;;;;;;;;;;;;;;19.77;83.57;101977.22;5074450;28;19921;-55
2023/04/16 01:30:50;;;;;;;;;;;;;;;19.78;82.65;101979.72;5074520;28;19988;-54
2023/04/16 01:33:38;;;;;;;;;;;;;;;20.73;75.57;101981.81;5074558;28;20015;-50
2023/04/16 01:36:05;;;;;;;;;;;;;;;20.65;76.46;101974.03;5074443;28;19920;-55
2023/04/16 01:38:30;;;;;;;;;;;;;;;20.39;79.19;101973.41;5072934;28;20003;-55
2023/04/16 01:40:58;;;;;;;;;;;;;;;20.73;75.99;101975.56;5073555;28;19939;-55
2023/04/16 01:43:24;;;;;;;;;;;;;;;20.74;75.74;101986.19;5073422;28;19928;-56
2023/04/16 01:45:51;;;;;;;;;;;;;;;20.77;74.84;101983.03;5073370;28;20257;-55
2023/04/16 01:48:16;;;;;;;;;;;;;;;20.48;76.06;101984.78;5073434;28;19917;-53
2023/04/16 01:50:42;;;;;;;;;;;;;;;20.66;76.03;101988.47;5074104;28;19923;-57
2023/04/16 01:53:08;;;;;;;;;;;;;;;20.63;76.58;101981.59;5070808;28;19940;-55
2023/04/16 01:55:33;;;;;;;;;;;;;;;20.61;75.53;101989.97;5073096;28;19931;-53
2023/04/16 01:57:59;;;;;;;;;;;;;;;20.62;77.56;101988.91;5073081;28;19917;-53
2023/04/16 02:00:30;;;;;;;;;;;;;;;20.63;76.75;101989.75;5073093;28;20245;-56
2023/04/16 02:02:55;;;;;;;;;;;;;;;20.46;77.24;101984.19;5054499;28;19928;-57
2023/04/16 02:05:25;;;;;;;;;;;;;;;20.15;78.68;101989.66;5072831;28;19916;-55
2023/04/16 02:07:50;;;;;;;;;;;;;;;19.67;82.19;101987.81;5072931;28;19955;-55
2023/04/16 02:10:16;;;;;;;;;;;;;;;20.54;78.11;101989.25;5073423;28;19951;-53
2023/04/16 02:12:42;;;;;;;;;;;;;;;20.42;77.97;101985.72;5073526;28;19927;-54
2023/04/16 02:15:08;;;;;;;;;;;;;;;19.57;80.99;101978.31;5072498;28;19952;-55
2023/04/16 02:17:34;;;;;;;;;;;;;;;19.88;80.40;101976.47;5072542;28;20311;-56
2023/04/16 02:20:07;;;;;;;;;;;;;;;20.23;80.05;101980.38;5072727;28;19917;-56
2023/04/16 02:22:35;;;;;;;;;;;;;;;19.65;82.77;101984.50;5070747;28;19917;-53
2023/04/16 02:25:01;;;;;;;;;;;;;;;19.84;80.92;101977.97;5072386;28;19947;-52
2023/04/16 02:27:26;;;;;;;;;;;;;;;20.33;79.64;101986.03;5070463;28;19980;-58
2023/04/16 02:29:58;;;;;;;;;;;;;;;20.67;79.25;101990.13;5069718;28;19921;-52
2023/04/16 02:32:23;;;;;;;;;;;;;;;20.91;75.58;101978.22;5072493;28;19931;-53
2023/04/16 02:34:49;;;;;;;;;;;;;;;21.53;72.28;101991.44;5072410;28;19952;-52
2023/04/16 02:37:15;;;;;;;;;;;;;;;20.89;74.58;101988.50;5072350;28;19917;-53
2023/04/16 02:39:40;;;;;;;;;;;;;;;20.71;75.71;101988.56;5072325;28;19916;-54
2023/04/16 02:42:05;;;;;;;;;;;;;;;20.89;74.47;101988.50;5073572;28;19920;-55
2023/04/16 02:44:30;;;;;;;;;;;;;;;20.77;75.59;101991.19;5073337;28;19928;-49
2023/04/16 02:46:56;;;;;;;;;;;;;;;20.23;79.00;101991.22;5069358;28;19917;-54
2023/04/16 02:49:21;;;;;;;;;;;;;;;20.70;76.41;101990.44;5071823;28;19921;-56
2023/04/16 02:51:47;;;;;;;;;;;;;;;20.57;76.49;101996.13;5073198;28;19925;-55
2023/04/16 02:54:12;;;;;;;;;;;;;;;20.29;79.43;101992.16;5073383;28;19916;-53
2023/04/16 02:56:38;;;;;;;;;;;;;;;20.67;75.79;101993.66;5073457;28;19921;-53
2023/04/16 02:59:04;;;;;;;;;;;;;;;20.53;75.52;102005.78;5072416;28;19917;-52
2023/04/16 03:01:30;;;;;;;;;;;;;;;20.36;78.80;101995.63;5078103;28;19935;-50
2023/04/16 03:03:56;;;;;;;;;;;;;;;20.08;79.88;101999.81;5072667;28;19948;-56
2023/04/16 03:06:21;;;;;;;;;;;;;;;20.16;79.93;101996.75;5072419;28;19917;-54
2023/04/16 03:08:47;;;;;;;;;;;;;;;20.35;78.21;101996.69;5071426;28;20008;-52
2023/04/16 03:11:12;;;;;;;;;;;;;;;20.27;77.72;102002.44;5072187;28;19929;-54
2023/04/16 03:13:37;;;;;;;;;;;;;;;20.16;78.41;102004.91;5072662;28;19980;-55
2023/04/16 03:16:02;;;;;;;;;;;;;;;20.41;79.02;102003.06;5073244;28;19916;-50
2023/04/16 03:18:28;;;;;;;;;;;;;;;20.57;77.50;102007.81;5073629;28;19932;-52
2023/04/16 03:20:54;;;;;;;;;;;;;;;20.14;78.98;102009.75;5076881;28;19916;-50
2023/04/16 03:23:19;;;;;;;;;;;;;;;20.39;76.58;102006.03;5077049;28;19927;-51
2023/04/16 03:25:46;;;;;;;;;;;;;;;20.15;80.89;102011.41;5085258;28;19917;-54
2023/04/16 03:28:16;;;;;;;;;;;;;;;20.32;78.27;102006.13;5076198;28;19976;-54
2023/04/16 03:30:41;;;;;;;;;;;;;;;20.49;76.54;102010.88;5076604;28;20307;-55
2023/04/16 03:33:07;;;;;;;;;;;;;;;20.09;77.68;102006.91;5076720;28;19916;-50
2023/04/16 03:35:33;;;;;;;;;;;;;;;20.32;78.12;102010.75;5075964;28;19921;-54
2023/04/16 03:37:59;;;;;;;;;;;;;;;20.46;76.84;102019.50;5075816;28;19955;-51
2023/04/16 03:40:26;;;;;;;;;;;;;;;20.67;77.16;102018.09;5075934;28;19917;-51
2023/04/16 03:42:52;;;;;;;;;;;;;;;20.74;76.38;102023.44;5075764;28;19916;-49
2023/04/16 03:45:18;;;;;;;;;;;;;;;20.15;79.23;102016.81;5076699;28;19920;-55
2023/04/16 03:47:51;;;;;;;;;;;;;;;20.14;78.57;102012.44;5056157;28;19924;-51
2023/04/16 03:50:18;;;;;;;;;;;;;;;20.03;78.33;102021.38;5075520;28;19920;-56
2023/04/16 03:52:48;;;;;;;;;;;;;;;20.99;76.17;102023.25;5073218;28;19963;-55
2023/04/16 03:55:13;;;;;;;;;;;;;;;20.78;75.38;102020.03;5073399;28;19916;-54
2023/04/16 03:57:40;;;;;;;;;;;;;;;20.69;75.64;102024.13;5073721;28;19917;-54
2023/04/16 04:00:09;;;;;;;;;;;;;;;20.68;76.14;102019.75;5074143;28;19917;-53
2023/04/16 04:03:01;;;;;;;;;;;;;;;20.95;74.54;102024.75;5073627;28;19984;-53
2023/04/16 04:05:26;;;;;;;;;;;;;;;21.00;74.38;102026.78;5076163;28;19917;-53
2023/04/16 04:07:51;;;;;;;;;;;;;;;21.20;75.11;102027.25;5076292;28;19916;-50
2023/04/16 04:10:17;;;;;;;;;;;;;;;21.45;73.11;102022.56;5076145;28;19965;-52
2023/04/16 04:12:42;;;;;;;;;;;;;;;21.53;72.37;102030.38;5075169;28;19939;-54
2023/04/16 04:15:08;;;;;;;;;;;;;;;21.57;72.24;102026.09;5075006;28;19927;-54
2023/04/16 04:17:33;;;;;;;;;;;;;;;21.44;71.82;102024.47;5076056;28;19917;-55
2023/04/16 04:19:59;;;;;;;;;;;;;;;21.16;73.86;102022.50;5076075;28;19913;-51
2023/04/16 04:22:25;;;;;;;;;;;;;;;20.31;76.60;102020.75;5075925;28;19956;-52
2023/04/16 04:24:51;;;;;;;;;;;;;;;20.45;79.57;102021.38;5075355;28;19916;-52
2023/04/16 04:27:16;;;;;;;;;;;;;;;20.26;80.00;102027.94;5075607;28;19943;-52
2023/04/16 04:29:42;;;;;;;;;;;;;;;19.84;81.02;102026.84;5072207;28;19921;-55
2023/04/16 04:32:07;;;;;;;;;;;;;;;20.27;80.42;102026.88;5074680;28;19942;-53
2023/04/16 04:34:33;;;;;;;;;;;;;;;20.28;78.73;102028.53;5074826;28;19917;-53
2023/04/16 04:36:59;;;;;;;;;;;;;;;19.91;81.62;102035.75;5074586;28;20004;-52
2023/04/16 04:39:26;;;;;;;;;;;;;;;20.53;78.77;102035.69;5072834;28;19944;-53
2023/04/16 04:41:51;;;;;;;;;;;;;;;19.74;82.72;102038.22;5074365;28;19984;-55
2023/04/16 04:44:18;;;;;;;;;;;;;;;20.04;81.42;102034.72;5074813;28;19924;-57
2023/04/16 04:46:43;;;;;;;;;;;;;;;20.22;80.80;102034.91;5075169;28;19917;-55
2023/04/16 04:49:08;;;;;;;;;;;;;;;20.46;79.51;102039.34;5074675;28;19944;-52
2023/04/16 04:51:35;;;;;;;;;;;;;;;20.37;80.31;102046.19;5071865;28;19980;-56
2023/04/16 04:54:00;;;;;;;;;;;;;;;20.09;80.09;102044.91;5055404;28;19936;-56
2023/04/16 04:56:25;;;;;;;;;;;;;;;20.19;79.88;102047.88;5037790;28;19932;-54
2023/04/16 04:58:53;;;;;;;;;;;;;;;20.00;80.49;102040.84;5037916;28;19924;-55
2023/04/16 05:01:19;;;;;;;;;;;;;;;19.70;80.69;102052.47;5037711;28;19937;-53
2023/04/16 05:03:44;;;;;;;;;;;;;;;20.29;78.36;102051.91;5037947;28;19921;-52
2023/04/16 05:06:10;;;;;;;;;;;;;;;19.54;83.33;102048.50;5055026;28;19917;-55
2023/04/16 05:08:36;;;;;;;;;;;;;;;19.91;80.40;102062.03;5055047;28;19917;-52
2023/04/16 05:11:01;;;;;;;;;;;;;;;19.43;82.87;102048.19;5054885;28;19940;-51
2023/04/16 05:13:27;;;;;;;;;;;;;;;19.65;84.04;102055.84;5037783;28;19921;-55
2023/04/16 05:15:52;;;;;;;;;;;;;;;20.14;78.97;102047.75;5054850;28;19917;-53
2023/04/16 05:18:17;;;;;;;;;;;;;;;20.15;79.24;102057.56;5054817;28;19917;-54
2023/04/16 05:20:42;;;;;;;;;;;;;;;20.37;78.23;102056.19;5037591;28;19970;-51
2023/04/16 05:23:08;;;;;;;;;;;;;;;20.41;78.40;102060.94;5053623;28;19921;-54
2023/04/16 05:25:33;;;;;;;;;;;;;;;20.07;79.49;102047.03;5054669;28;20456;-53
2023/04/16 05:27:58;;;;;;;;;;;;;;;20.06;78.42;102057.06;5054773;28;19921;-54
2023/04/16 05:30:24;;;;;;;;;;;;;;;19.88;79.69;102060.59;5054520;28;19943;-52
2023/04/16 05:32:50;;;;;;;;;;;;;;;19.83;80.79;102056.91;5053732;28;19928;-50
2023/04/16 05:35:15;;;;;;;;;;;;;;;19.34;86.13;102061.19;5054511;28;19921;-56
2023/04/16 05:37:41;;;;;;;;;;;;;;;19.63;84.54;102066.97;5054673;28;19928;-54
2023/04/16 05:40:07;;;;;;;;;;;;;;;19.67;81.20;102063.78;5054186;28;19928;-54
2023/04/16 05:42:32;;;;;;;;;;;;;;;20.02;78.60;102071.31;5054235;28;19980;-53
2023/04/16 05:44:58;;;;;;;;;;;;;;;20.35;79.29;102078.19;5054475;28;20036;-52
2023/04/16 05:47:23;;;;;;;;;;;;;;;19.54;82.72;102076.44;5054451;28;19917;-52
2023/04/16 05:49:49;;;;;;;;;;;;;;;20.09;80.49;102066.63;5054089;28;19959;-54
2023/04/16 05:52:14;;;;;;;;;;;;;;;19.71;84.09;102076.66;5061734;28;19935;-53
2023/04/16 05:54:39;;;;;;;;;;;;;;;20.34;79.35;102074.63;5074129;28;19916;-52
2023/04/16 05:57:05;;;;;;;;;;;;;;;20.26;78.57;102071.41;5074183;28;19984;-56
2023/04/16 05:59:30;;;;;;;;;;;;;;;19.93;80.90;102084.34;5073937;28;19917;-52
2023/04/16 06:01:56;;;;;;;;;;;;;;;20.17;79.96;102081.75;5074274;28;19916;-56
2023/04/16 06:04:21;;;;;;;;;;;;;;;20.15;81.18;102083.88;5074117;28;19952;-54
2023/04/16 06:06:46;;;;;;;;;;;;;;;19.44;83.63;102087.81;5074179;28;19917;-55
2023/04/16 06:09:12;;;;;;;;;;;;;;;19.32;84.64;102095.84;5073976;28;19917;-53
2023/04/16 06:11:37;;;;;;;;;;;;;;;20.22;81.25;102098.22;5073726;28;19921;-51
2023/04/16 06:14:02;;;;;;;;;;;;;;;19.86;80.33;102094.44;5073835;28;19924;-51
2023/04/16 06:16:28;;;;;;;;;;;;;;;20.02;81.58;102103.88;5073839;28;19952;-55
2023/04/16 06:18:53;;;;;;;;;;;;;;;20.02;82.86;102104.72;5073761;28;19925;-55
2023/04/16 06:21:18;;;;;;;;;;;;;;;20.13;80.32;102107.72;5073890;28;19984;-55
2023/04/16 06:23:44;;;;;;;;;;;;;;;19.32;83.26;102103.19;5073801;28;19948;-55
2023/04/16 06:26:09;;;;;;;;;;;;;;;19.88;81.51;102101.31;5073706;28;19999;-56
2023/04/16 06:28:35;;;;;;;;;;;;;;;19.87;79.67;102105.09;5073875;28;19925;-55
2023/04/16 06:31:00;;;;;;;;;;;;;;;20.17;81.32;102104.31;5073590;28;19943;-55
2023/04/16 06:33:25;;;;;;;;;;;;;;;20.24;78.17;102106.97;5073593;28;19981;-56
2023/04/16 06:35:50;;;;;;;;;;;;;;;20.35;77.79;102102.63;5073797;28;19972;-53
2023/04/16 06:38:16;;;;;;;;;;;;;;;20.68;76.59;102108.63;5073218;28;19931;-55
2023/04/16 06:40:41;;;;;;;;;;;;;;;19.95;79.91;102111.28;5073857;28;19916;-55
2023/04/16 06:43:07;;;;;;;;;;;;;;;20.42;78.32;102111.50;5073185;28;19955;-52
2023/04/16 06:45:32;;;;;;;;;;;;;;;20.47;76.82;102116.25;5073568;28;19921;-55
2023/04/16 06:48:02;;;;;;;;;;;;;;;20.17;79.84;102122.50;5073352;28;19991;-52
2023/04/16 06:50:27;;;;;;;;;;;;;;;20.71;77.72;102121.75;5073623;28;19917;-54
2023/04/16 06:52:53;;;;;;;;;;;;;;;20.52;78.76;102124.53;5072955;28;19928;-52
2023/04/16 06:55:18;;;;;;;;;;;;;;;20.35;78.21;102135.22;5077525;28;19981;-52
2023/04/16 06:57:44;;;;;;;;;;;;;;;20.41;80.13;102134.31;5077455;28;19917;-52
2023/04/16 07:00:09;;;;;;;;;;;;;;;20.81;78.95;102132.09;5077343;28;19916;-52
2023/04/16 07:02:35;;;;;;;;;;;;;;;20.53;80.33;102128.91;5077087;28;19925;-53
2023/04/16 07:05:01;;;;;;;;;;;;;;;20.25;79.40;102132.22;5077373;28;19921;-55
2023/04/16 07:07:26;;;;;;;;;;;;;;;20.51;77.66;102133.75;5077152;28;19928;-52
2023/04/16 07:09:51;;;;;;;;;;;;;;;20.16;80.35;102139.84;5077260;28;19946;-56
2023/04/16 07:12:17;;;;;;;;;;;;;;;20.33;77.60;102142.78;5076825;28;19991;-53
2023/04/16 07:14:42;;;;;;;;;;;;;;;20.16;78.56;102148.84;5076925;28;19921;-53
2023/04/16 07:17:07;;;;;;;;;;;;;;;20.31;78.07;102142.19;5077001;28;20263;-54
2023/04/16 07:19:33;;;;;;;;;;;;;;;20.58;78.51;102147.25;5076871;28;19924;-53
2023/04/16 07:21:58;;;;;;;;;;;;;;;20.54;78.05;102151.50;5077017;28;19920;-52
2023/04/16 07:24:24;;;;;;;;;;;;;;;20.21;79.74;102150.88;5076704;28;19924;-53
2023/04/16 07:26:49;;;;;;;;;;;;;;;20.56;77.53;102162.94;5076763;28;19974;-55
2023/04/16 07:29:15;;;;;;;;;;;;;;;20.75;77.78;102150.13;5076752;28;19916;-55
2023/04/16 07:31:40;;;;;;;;;;;;;;;20.16;81.20;102156.97;5076639;28;19921;-54
2023/04/16 07:34:06;;;;;;;;;;;;;;;20.37;78.74;102159.44;5076441;28;19928;-56
2023/04/16 07:36:31;;;;;;;;;;;;;;;21.03;76.17;102149.50;5076484;28;19932;-50
2023/04/16 07:38:56;;;;;;;;;;;;;;;21.26;75.82;102160.63;5076709;28;19952;-54
2023/04/16 07:41:22;;;;;;;;;;;;;;;21.21;73.27;102161.34;5076436;28;19916;-54
2023/04/16 07:43:47;;;;;;;;;;;;;;;21.10;74.99;102167.59;5076685;28;19917;-55
2023/04/16 07:46:13;;;;;;;;;;;;;;;21.51;74.81;102170.47;5076272;28;20039;-51
2023/04/16 07:48:38;;;;;;;;;;;;;;;21.20;73.72;102174.13;5076453;28;19916;-54
2023/04/16 07:51:04;;;;;;;;;;;;;;;21.20;73.78;102174.13;5075309;28;20421;-54
2023/04/16 07:53:30;;;;;;;;;;;;;;;21.22;74.95;102182.06;5057986;28;19921;-53
2023/04/16 07:55:55;;;;;;;;;;;;;;;20.80;74.35;102177.47;5055884;28;19921;-55
2023/04/16 07:58:20;;;;;;;;;;;;;;;21.06;75.28;102187.13;5055942;28;19917;-52
2023/04/16 08:00:46;;;;;;;;;;;;;;;21.34;74.17;102188.34;5055927;28;19984;-54
2023/04/16 08:03:11;;;;;;;;;;;;;;;21.31;70.18;102183.38;5056045;28;19921;-56
2023/04/16 08:05:36;;;;;;;;;;;;;;;21.35;73.13;102189.97;5055729;28;19924;-53
2023/04/16 08:08:02;;;;;;;;;;;;;;;21.77;73.20;102194.50;5055809;28;19921;-51
2023/04/16 08:10:28;;;;;;;;;;;;;;;21.60;73.80;102194.38;5055869;28;19932;-54
2023/04/16 08:12:53;;;;;;;;;;;;;;;21.37;75.82;102199.81;5055821;28;19944;-51
2023/04/16 08:15:18;;;;;;;;;;;;;;;21.33;73.95;102200.28;5055893;28;19920;-54
2023/04/16 08:17:43;;;;;;;;;;;;;;;21.46;75.69;102195.69;5055264;28;19917;-55
2023/04/16 08:20:09;;;;;;;;;;;;;;;21.54;73.54;102210.81;5055523;28;19992;-53
2023/04/16 08:22:35;;;;;;;;;;;;;;;21.44;74.34;102205.94;5055699;28;19928;-54
2023/04/16 08:25:00;;;;;;;;;;;;;;;21.53;72.98;102209.16;5055621;28;19924;-52
2023/04/16 08:27:26;;;;;;;;;;;;;;;21.57;71.53;102211.19;5055349;28;19940;-54
2023/04/16 08:29:51;;;;;;;;;;;;;;;21.21;73.62;102210.31;5038171;28;19917;-56
2023/04/16 08:32:16;;;;;;;;;;;;;;;21.25;72.31;102214.25;5055485;28;19921;-53
2023/04/16 08:34:42;;;;;;;;;;;;;;;21.58;72.31;102217.47;5055345;28;20001;-55
2023/04/16 08:37:08;;;;;;;;;;;;;;;21.57;73.23;102213.91;5055021;28;19939;-52
2023/04/16 08:39:34;;;;;;;;;;;;;;;21.44;70.88;102214.97;5037983;28;19917;-50
2023/04/16 08:42:01;;;;;;;;;;;;;;;21.79;71.54;102221.50;5055308;28;19917;-49
2023/04/16 08:44:29;;;;;;;;;;;;;;;21.44;74.02;102227.72;5055384;28;19944;-54
2023/04/16 08:46:56;;;;;;;;;;;;;;;21.15;73.50;102222.97;5055000;28;19921;-53
2023/04/16 08:49:22;;;;;;;;;;;;;;;21.42;73.19;102225.25;5055193;28;19935;-53
2023/04/16 08:51:51;;;;;;;;;;;;;;;21.76;71.58;102230.97;5058970;28;19925;-53
2023/04/16 08:54:31;;;;;;;;;;;;;;;21.74;69.92;102235.00;5075015;28;19925;-51
2023/04/16 08:56:57;;;;;;;;;;;;;;;22.03;68.22;102233.22;5073517;28;19946;-54
2023/04/16 08:59:22;;;;;;;;;;;;;;;21.96;67.93;102229.75;5074424;28;19909;-54
2023/04/16 09:01:48;;;;;;;;;;;;;;;22.34;69.39;102233.00;5074788;28;20007;-55
2023/04/16 09:04:14;;;;;;;;;;;;;;;22.22;68.26;102234.94;5074826;28;19916;-53
2023/04/16 09:06:41;;;;;;;;;;;;;;;21.88;70.22;102233.69;5074927;28;19928;-51
2023/04/16 09:09:07;;;;;;;;;;;;;;;22.16;70.44;102234.00;5074835;28;19937;-51
2023/04/16 09:11:33;;;;;;;;;;;;;;;22.18;68.43;102238.16;5074634;28;19920;-54
2023/04/16 09:13:59;;;;;;;;;;;;;;;22.08;67.54;102248.81;5074811;28;19925;-53
2023/04/16 09:16:26;;;;;;;;;;;;;;;22.46;68.33;102246.59;5073916;28;19917;-56
2023/04/16 09:18:51;;;;;;;;;;;;;;;22.65;68.14;102254.63;5074527;28;19959;-53
2023/04/16 09:21:18;;;;;;;;;;;;;;;22.56;69.65;102252.31;5074518;28;20045;-53
2023/04/16 09:23:44;;;;;;;;;;;;;;;22.69;69.68;102253.06;5074525;28;19974;-52
2023/04/16 09:26:09;;;;;;;;;;;;;;;22.67;69.80;102258.78;5073384;28;19921;-55
2023/04/16 09:28:38;;;;;;;;;;;;;;;22.68;68.21;102252.25;5074204;28;19917;-54
2023/04/16 09:31:07;;;;;;;;;;;;;;;22.29;67.66;102257.44;5074061;28;19928;-55
2023/04/16 09:33:32;;;;;;;;;;;;;;;22.14;71.02;102264.19;5072165;28;19917;-54
2023/04/16 09:35:57;;;;;;;;;;;;;;;22.65;70.24;102265.53;5072914;28;19963;-54
2023/04/16 09:38:25;;;;;;;;;;;;;;;22.59;68.54;102261.88;5072771;28;19932;-56
2023/04/16 09:41:07;;;;;;;;;;;;;;;22.53;70.59;102265.56;5074221;28;19917;-54
2023/04/16 09:43:32;;;;;;;;;;;;;;;22.60;68.43;102275.28;5073426;28;19916;-57
2023/04/16 09:45:57;;;;;;;;;;;;;;;22.29;69.67;102274.63;5074463;28;19924;-54
2023/04/16 09:48:30;;;;;;;;;;;;;;;22.65;66.58;102274.56;5073977;28;19916;-55
2023/04/16 09:50:56;;;;;;;;;;;;;;;22.99;67.61;102277.38;5072529;28;19923;-55
2023/04/16 09:53:28;;;;;;;;;;;;;;;22.94;68.03;102285.47;5073829;28;19944;-54
2023/04/16 09:55:58;;;;;;;;;;;;;;;22.92;67.89;102285.69;5072034;28;19941;-52
2023/04/16 09:58:24;;;;;;;;;;;;;;;22.94;67.44;102282.75;5074099;28;20072;-52
2023/04/16 10:01:02;;;;;;;;;;;;;;;22.95;65.72;102284.41;5073618;28;19921;-56
2023/04/16 10:03:31;;;;;;;;;;;;;;;22.88;65.64;102283.72;5073761;28;19920;-57
2023/04/16 10:06:00;;;;;;;;;;;;;;;23.05;65.70;102292.75;5073093;28;19931;-53
2023/04/16 10:08:26;;;;;;;;;;;;;;;23.17;66.37;102291.88;5073768;28;19931;-54
2023/04/16 10:10:53;;;;;;;;;;;;;;;22.94;67.14;102282.75;5073694;28;19917;-54
2023/04/16 10:13:18;;;;;;;;;;;;;;;23.22;65.99;102299.34;5073789;28;19992;-52
2023/04/16 10:15:43;;;;;;;;;;;;;;;23.31;65.36;102296.00;5073746;28;19924;-54
2023/04/16 10:18:09;;;;;;;;;;;;;;;23.30;64.77;102301.69;5073200;28;20453;-56
2023/04/16 10:20:35;;;;;;;;;;;;;;;23.06;65.25;102297.13;5073389;28;19917;-52
2023/04/16 10:23:01;;;;;;;;;;;;;;;22.89;66.11;102290.84;5073678;28;19917;-51
2023/04/16 10:25:26;;;;;;;;;;;;;;;22.83;64.58;102295.34;5073800;28;19947;-52
2023/04/16 10:27:52;;;;;;;;;;;;;;;23.27;64.88;102296.72;5073870;28;19916;-55
2023/04/16 10:30:18;;;;;;;;;;;;;;;22.84;66.40;102296.19;5073359;28;19924;-53
2023/04/16 10:32:44;;;;;;;;;;;;;;;23.30;65.15;102298.97;5073274;28;19921;-52
2023/04/16 10:35:13;;;;;;;;;;;;;;;23.62;64.69;102299.22;5073395;28;19944;-56
2023/04/16 10:37:39;;;;;;;;;;;;;;;23.76;64.57;102305.16;5073563;28;19921;-56
2023/04/16 10:40:20;;;;;;;;;;;;;;;23.91;63.67;102301.84;5071704;28;19999;-55
2023/04/16 10:42:56;;;;;;;;;;;;;;;23.71;62.61;102299.63;5073616;28;19984;-55
2023/04/16 10:45:30;;;;;;;;;;;;;;;23.84;61.99;102305.81;5071620;28;19917;-55
2023/04/16 10:47:56;;;;;;;;;;;;;;;23.65;61.83;102302.53;5073326;28;19917;-56
2023/04/16 10:50:22;;;;;;;;;;;;;;;23.85;61.70;102302.84;5073312;28;19916;-54
2023/04/16 10:52:48;;;;;;;;;;;;;;;23.78;62.25;102296.75;5072997;28;19989;-51
2023/04/16 10:55:15;;;;;;;;;;;;;;;23.41;62.84;102299.97;5073216;28;19916;-50
2023/04/16 10:57:41;;;;;;;;;;;;;;;23.63;63.30;102306.34;5073004;28;19923;-55
2023/04/16 11:00:22;;;;;;;;;;;;;;;23.81;62.63;102298.97;5073326;28;19932;-53
2023/04/16 11:02:51;;;;;;;;;;;;;;;23.72;62.90;102297.72;5073095;28;19923;-53
2023/04/16 11:05:20;;;;;;;;;;;;;;;23.90;61.93;102296.66;5073307;28;19967;-52
2023/04/16 11:07:46;;;;;;;;;;;;;;;23.63;63.09;102303.59;5073257;28;19908;-51
2023/04/16 11:10:12;;;;;;;;;;;;;;;23.71;62.72;102305.09;5073454;28;19916;-52
2023/04/16 11:12:39;;;;;;;;;;;;;;;23.89;63.25;102304.00;5072730;28;19909;-53
2023/04/16 11:15:20;;;;;;;;;;;;;;;24.26;61.09;102296.34;5073136;28;19917;-50
2023/04/16 11:17:47;;;;;;;;;;;;;;;24.17;62.25;102299.50;5072930;28;19992;-54
2023/04/16 11:20:17;;;;;;;;;;;;;;;24.27;61.00;102303.47;5072944;28;19924;-55
2023/04/16 11:22:44;;;;;;;;;;;;;;;23.58;63.15;102313.59;5073035;28;19955;-55
2023/04/16 11:25:10;;;;;;;;;;;;;;;23.87;62.66;102306.16;5072991;28;19921;-55
2023/04/16 11:27:35;;;;;;;;;;;;;;;24.12;62.41;102307.63;5073091;28;19916;-54
2023/04/16 11:30:03;;;;;;;;;;;;;;;24.17;61.41;102307.69;5073013;28;19924;-55
2023/04/16 11:32:34;;;;;;;;;;;;;;;24.02;60.95;102313.78;5073068;28;19921;-53
2023/04/16 11:35:03;;;;;;;;;;;;;;;24.08;61.94;102309.22;5072637;28;19928;-55
2023/04/16 11:37:33;;;;;;;;;;;;;;;24.30;61.63;102308.44;5070876;28;19928;-57
2023/04/16 11:39:58;;;;;;;;;;;;;;;23.92;62.68;102311.69;5073002;28;20031;-56
2023/04/16 11:42:23;;;;;;;;;;;;;;;24.36;62.12;102323.81;5076839;28;19916;-52
2023/04/16 11:44:53;;;;;;;;;;;;;;;23.71;62.49;102301.53;5076485;28;19980;-51
2023/04/16 11:47:21;;;;;;;;;;;;;;;24.30;60.54;102313.88;5075061;28;20462;-51
2023/04/16 11:49:46;;;;;;;;;;;;;;;24.24;60.73;102310.25;5076704;28;19917;-52
2023/04/16 11:52:12;;;;;;;;;;;;;;;24.16;60.85;102318.91;5075771;28;19979;-51
2023/04/16 11:54:38;;;;;;;;;;;;;;;23.98;61.77;102322.69;5073058;28;19939;-52
2023/04/16 11:57:03;;;;;;;;;;;;;;;23.83;61.59;102324.13;5076416;28;19976;-55
2023/04/16 11:59:29;;;;;;;;;;;;;;;23.60;62.32;102323.22;5076096;28;19921;-52
2023/04/16 12:01:55;;;;;;;;;;;;;;;23.68;62.32;102324.72;5076310;28;19909;-51
2023/04/16 12:04:23;;;;;;;;;;;;;;;23.32;63.38;102327.66;5076016;28;19932;-53
2023/04/16 12:07:08;;;;;;;;;;;;;;;23.70;62.17;102328.03;5076285;28;19921;-54
2023/04/16 12:09:36;;;;;;;;;;;;;;;24.19;61.41;102318.38;5075892;28;19923;-55
2023/04/16 12:12:02;;;;;;;;;;;;;;;24.40;60.75;102326.88;5075869;28;19984;-49
2023/04/16 12:14:28;;;;;;;;;;;;;;;23.76;61.74;102326.22;5076162;28;19916;-51
2023/04/16 12:16:55;;;;;;;;;;;;;;;24.26;59.29;102332.69;5075802;28;19948;-54
2023/04/16 12:19:20;;;;;;;;;;;;;;;24.27;60.29;102325.34;5076212;28;19923;-54
2023/04/16 12:21:47;;;;;;;;;;;;;;;24.26;60.54;102329.97;5075725;28;19923;-53
2023/04/16 12:24:13;;;;;;;;;;;;;;;24.51;60.07;102330.56;5075108;28;19916;-56
2023/04/16 12:26:40;;;;;;;;;;;;;;;24.00;61.36;102331.50;5072437;28;19921;-53
2023/04/16 12:29:22;;;;;;;;;;;;;;;24.01;60.61;102333.13;5075485;28;19972;-55
2023/04/16 12:31:48;;;;;;;;;;;;;;;24.20;60.74;102331.78;5074908;28;19921;-56